sensor_id;sensor_type;location;lat;lon;timestamp;temperature;humidity
29687;DHT22;16599;47.078;15.536;2022-11-11T00:01:07;2.00;99.90
29687;DHT22;16599;47.078;15.536;2022-11-11T00:03:34;1.90;99.90
29687;DHT22;16599;47.078;15.536;2022-11-11T00:06:02;1.90;99.90
29687;DHT22;16599;47.078;15.536;2022-11-11T00:08:29;2.00;99.90
29687;DHT22;16599;47.078;15.536;2022-11-11T00:11:04;2.00;99.90
29687;DHT22;16599;47.078;15.536;2022-11-11T00:13:32;1.70;99.90
29687;DHT22;16599;47.078;15.536;2022-11-11T00:16:07;1.80;99.90
29687;DHT22;16599;47.078;15.536;2022-11-11T00:18:35;1.80;99.90
29687;DHT22;16599;47.078;15.536;2022-11-11T00:21:20;1.80;99.90
29687;DHT22;16599;47.078;15.536;2022-11-11T00:24:20;1.80;99.90
29687;DHT22;16599;47.078;15.536;2022-11-11T00:27:07;1.70;99.90
29687;DHT22;16599;47.078;15.536;2022-11-11T00:29:35;1.80;99.90
29687;DHT22;16599;47.078;15.536;2022-11-11T00:32:04;1.90;99.90
29687;DHT22;16599;47.078;15.536;2022-11-11T00:34:50;1.80;99.90
29687;DHT22;16599;47.078;15.536;2022-11-11T00:37:37;1.50;99.90
29687;DHT22;16599;47.078;15.536;2022-11-11T00:40:05;1.80;99.90
29687;DHT22;16599;47.078;15.536;2022-11-11T00:42:32;1.90;99.90
29687;DHT22;16599;47.078;15.536;2022-11-11T00:44:59;2.00;99.90
29687;DHT22;16599;47.078;15.536;2022-11-11T00:47:26;1.90;99.90
29687;DHT22;16599;47.078;15.536;2022-11-11T00:50:23;1.80;99.90
29687;DHT22;16599;47.078;15.536;2022-11-11T00:53:19;1.80;99.90
29687;DHT22;16599;47.078;15.536;2022-11-11T00:55:53;1.90;99.90
29687;DHT22;16599;47.078;15.536;2022-11-11T00:58:20;2.00;99.90
29687;DHT22;16599;47.078;15.536;2022-11-11T01:00:49;2.10;99.90
29687;DHT22;16599;47.078;15.536;2022-11-11T01:03:20;2.10;99.90
29687;DHT22;16599;47.078;15.536;2022-11-11T01:05:47;1.60;99.90
29687;DHT22;16599;47.078;15.536;2022-11-11T01:08:15;1.60;99.90
29687;DHT22;16599;47.078;15.536;2022-11-11T01:10:42;1.70;99.90
29687;DHT22;16599;47.078;15.536;2022-11-11T01:13:22;1.60;99.90
29687;DHT22;16599;47.078;15.536;2022-11-11T01:15:51;2.00;99.90
29687;DHT22;16599;47.078;15.536;2022-11-11T01:18:24;2.00;99.90
29687;DHT22;16599;47.078;15.536;2022-11-11T01:21:11;1.80;99.90
29687;DHT22;16599;47.078;15.536;2022-11-11T01:23:40;1.50;99.90
29687;DHT22;16599;47.078;15.536;2022-11-11T01:28:44;1.50;99.90
29687;DHT22;16599;47.078;15.536;2022-11-11T01:31:14;1.70;99.90
29687;DHT22;16599;47.078;15.536;2022-11-11T01:33:42;1.70;99.90
29687;DHT22;16599;47.078;15.536;2022-11-11T01:36:20;1.50;99.90
29687;DHT22;16599;47.078;15.536;2022-11-11T01:38:49;1.50;99.90
29687;DHT22;16599;47.078;15.536;2022-11-11T01:41:22;1.50;99.90
29687;DHT22;16599;47.078;15.536;2022-11-11T01:47:07;1.40;99.90
29687;DHT22;16599;47.078;15.536;2022-11-11T01:49:39;1.50;99.90
29687;DHT22;16599;47.078;15.536;2022-11-11T01:52:25;1.60;99.90
29687;DHT22;16599;47.078;15.536;2022-11-11T01:54:58;1.80;99.90
29687;DHT22;16599;47.078;15.536;2022-11-11T01:57:35;1.70;99.90
29687;DHT22;16599;47.078;15.536;2022-11-11T02:00:09;1.60;99.90
29687;DHT22;16599;47.078;15.536;2022-11-11T02:02:44;1.70;99.90
29687;DHT22;16599;47.078;15.536;2022-11-11T02:05:14;1.40;99.90
29687;DHT22;16599;47.078;15.536;2022-11-11T02:08:03;1.40;99.90
29687;DHT22;16599;47.078;15.536;2022-11-11T02:10:32;1.50;99.90
29687;DHT22;16599;47.078;15.536;2022-11-11T02:12:59;1.60;99.90
29687;DHT22;16599;47.078;15.536;2022-11-11T02:15:45;1.70;99.90
29687;DHT22;16599;47.078;15.536;2022-11-11T02:18:12;1.50;99.90
29687;DHT22;16599;47.078;15.536;2022-11-11T02:20:42;1.40;99.90
29687;DHT22;16599;47.078;15.536;2022-11-11T02:25:42;1.50;99.90
29687;DHT22;16599;47.078;15.536;2022-11-11T02:28:10;1.60;99.90
29687;DHT22;16599;47.078;15.536;2022-11-11T02:30:39;1.40;99.90
29687;DHT22;16599;47.078;15.536;2022-11-11T02:33:06;1.40;99.90
29687;DHT22;16599;47.078;15.536;2022-11-11T02:35:37;1.40;99.90
29687;DHT22;16599;47.078;15.536;2022-11-11T02:38:07;1.40;99.90
29687;DHT22;16599;47.078;15.536;2022-11-11T02:40:43;1.50;99.90
29687;DHT22;16599;47.078;15.536;2022-11-11T02:43:31;1.50;99.90
29687;DHT22;16599;47.078;15.536;2022-11-11T02:46:00;1.30;99.90
29687;DHT22;16599;47.078;15.536;2022-11-11T02:48:28;1.50;99.90
29687;DHT22;16599;47.078;15.536;2022-11-11T02:50:55;1.20;99.90
29687;DHT22;16599;47.078;15.536;2022-11-11T02:53:23;1.10;99.90
29687;DHT22;16599;47.078;15.536;2022-11-11T02:55:50;1.10;99.90
29687;DHT22;16599;47.078;15.536;2022-11-11T02:58:17;1.20;99.90
29687;DHT22;16599;47.078;15.536;2022-11-11T03:00:44;1.20;99.90
29687;DHT22;16599;47.078;15.536;2022-11-11T03:03:11;1.40;99.90
29687;DHT22;16599;47.078;15.536;2022-11-11T03:05:38;1.40;99.90
29687;DHT22;16599;47.078;15.536;2022-11-11T03:08:05;1.40;99.90
29687;DHT22;16599;47.078;15.536;2022-11-11T03:10:32;1.40;99.90
29687;DHT22;16599;47.078;15.536;2022-11-11T03:12:59;1.40;99.90
29687;DHT22;16599;47.078;15.536;2022-11-11T03:15:26;1.30;99.90
29687;DHT22;16599;47.078;15.536;2022-11-11T03:17:53;1.00;99.90
29687;DHT22;16599;47.078;15.536;2022-11-11T03:20:20;0.80;99.90
29687;DHT22;16599;47.078;15.536;2022-11-11T03:23:10;1.00;99.90
29687;DHT22;16599;47.078;15.536;2022-11-11T03:25:45;1.30;99.90
29687;DHT22;16599;47.078;15.536;2022-11-11T03:28:16;1.50;99.90
29687;DHT22;16599;47.078;15.536;2022-11-11T03:30:48;1.30;99.90
29687;DHT22;16599;47.078;15.536;2022-11-11T03:33:16;1.10;99.90
29687;DHT22;16599;47.078;15.536;2022-11-11T03:35:47;1.00;99.90
29687;DHT22;16599;47.078;15.536;2022-11-11T03:38:14;1.10;99.90
29687;DHT22;16599;47.078;15.536;2022-11-11T03:40:55;1.30;99.90
29687;DHT22;16599;47.078;15.536;2022-11-11T03:43:26;1.40;99.90
29687;DHT22;16599;47.078;15.536;2022-11-11T03:45:55;1.20;99.90
29687;DHT22;16599;47.078;15.536;2022-11-11T03:48:22;1.20;99.90
29687;DHT22;16599;47.078;15.536;2022-11-11T03:50:49;1.10;99.90
29687;DHT22;16599;47.078;15.536;2022-11-11T03:53:18;1.20;99.90
29687;DHT22;16599;47.078;15.536;2022-11-11T03:55:51;1.20;99.90
29687;DHT22;16599;47.078;15.536;2022-11-11T03:58:18;1.30;99.90
29687;DHT22;16599;47.078;15.536;2022-11-11T04:00:45;1.10;99.90
29687;DHT22;16599;47.078;15.536;2022-11-11T04:03:14;1.00;99.90
29687;DHT22;16599;47.078;15.536;2022-11-11T04:05:59;1.10;99.90
29687;DHT22;16599;47.078;15.536;2022-11-11T04:08:45;1.00;99.90
29687;DHT22;16599;47.078;15.536;2022-11-11T04:11:42;1.00;99.90
29687;DHT22;16599;47.078;15.536;2022-11-11T04:14:11;1.10;99.90
29687;DHT22;16599;47.078;15.536;2022-11-11T04:16:57;1.00;99.90
29687;DHT22;16599;47.078;15.536;2022-11-11T04:19:25;1.00;99.90
29687;DHT22;16599;47.078;15.536;2022-11-11T04:22:10;1.00;99.90
29687;DHT22;16599;47.078;15.536;2022-11-11T04:24:37;0.80;99.90
29687;DHT22;16599;47.078;15.536;2022-11-11T04:27:22;0.90;99.90
29687;DHT22;16599;47.078;15.536;2022-11-11T04:29:49;0.90;99.90
29687;DHT22;16599;47.078;15.536;2022-11-11T04:32:21;1.10;99.90
29687;DHT22;16599;47.078;15.536;2022-11-11T04:35:10;1.10;99.90
29687;DHT22;16599;47.078;15.536;2022-11-11T04:37:45;1.10;99.90
29687;DHT22;16599;47.078;15.536;2022-11-11T04:40:13;1.00;99.90
29687;DHT22;16599;47.078;15.536;2022-11-11T04:42:58;0.90;99.90
29687;DHT22;16599;47.078;15.536;2022-11-11T04:45:25;1.00;99.90
29687;DHT22;16599;47.078;15.536;2022-11-11T04:47:59;0.90;99.90
29687;DHT22;16599;47.078;15.536;2022-11-11T04:50:32;0.60;99.90
29687;DHT22;16599;47.078;15.536;2022-11-11T04:53:00;0.80;99.90
29687;DHT22;16599;47.078;15.536;2022-11-11T04:55:27;1.00;99.90
29687;DHT22;16599;47.078;15.536;2022-11-11T04:58:13;1.10;99.90
29687;DHT22;16599;47.078;15.536;2022-11-11T05:00:40;1.00;99.90
29687;DHT22;16599;47.078;15.536;2022-11-11T05:03:10;1.00;99.90
29687;DHT22;16599;47.078;15.536;2022-11-11T05:08:54;0.90;99.90
29687;DHT22;16599;47.078;15.536;2022-11-11T05:11:30;0.90;99.90
29687;DHT22;16599;47.078;15.536;2022-11-11T05:13:59;1.00;99.90
29687;DHT22;16599;47.078;15.536;2022-11-11T05:16:47;1.10;99.90
29687;DHT22;16599;47.078;15.536;2022-11-11T05:19:33;1.00;99.90
29687;DHT22;16599;47.078;15.536;2022-11-11T05:22:25;1.00;99.90
29687;DHT22;16599;47.078;15.536;2022-11-11T05:24:53;1.10;99.90
29687;DHT22;16599;47.078;15.536;2022-11-11T05:27:38;1.00;99.90
29687;DHT22;16599;47.078;15.536;2022-11-11T05:30:07;1.00;99.90
29687;DHT22;16599;47.078;15.536;2022-11-11T05:32:34;0.80;99.90
29687;DHT22;16599;47.078;15.536;2022-11-11T05:35:02;0.60;99.90
29687;DHT22;16599;47.078;15.536;2022-11-11T05:37:29;0.70;99.90
29687;DHT22;16599;47.078;15.536;2022-11-11T05:39:56;0.90;99.90
29687;DHT22;16599;47.078;15.536;2022-11-11T05:42:23;1.00;99.90
29687;DHT22;16599;47.078;15.536;2022-11-11T05:44:50;1.00;99.90
29687;DHT22;16599;47.078;15.536;2022-11-11T05:47:17;1.00;99.90
29687;DHT22;16599;47.078;15.536;2022-11-11T05:49:44;1.10;99.90
29687;DHT22;16599;47.078;15.536;2022-11-11T05:52:12;1.20;99.90
29687;DHT22;16599;47.078;15.536;2022-11-11T05:54:39;1.20;99.90
29687;DHT22;16599;47.078;15.536;2022-11-11T05:57:06;1.10;99.90
29687;DHT22;16599;47.078;15.536;2022-11-11T05:59:32;1.00;99.90
29687;DHT22;16599;47.078;15.536;2022-11-11T06:01:59;1.00;99.90
29687;DHT22;16599;47.078;15.536;2022-11-11T06:04:26;0.90;99.90
29687;DHT22;16599;47.078;15.536;2022-11-11T06:06:54;1.00;99.90
29687;DHT22;16599;47.078;15.536;2022-11-11T06:09:21;1.10;99.90
29687;DHT22;16599;47.078;15.536;2022-11-11T06:11:48;1.10;99.90
29687;DHT22;16599;47.078;15.536;2022-11-11T06:14:14;1.10;99.90
29687;DHT22;16599;47.078;15.536;2022-11-11T06:16:41;1.20;99.90
29687;DHT22;16599;47.078;15.536;2022-11-11T06:19:08;1.30;99.90
29687;DHT22;16599;47.078;15.536;2022-11-11T06:21:35;1.40;99.90
29687;DHT22;16599;47.078;15.536;2022-11-11T06:24:22;1.40;99.90
29687;DHT22;16599;47.078;15.536;2022-11-11T06:26:53;1.40;99.90
29687;DHT22;16599;47.078;15.536;2022-11-11T06:29:19;1.20;99.90
29687;DHT22;16599;47.078;15.536;2022-11-11T06:31:46;1.10;99.90
29687;DHT22;16599;47.078;15.536;2022-11-11T06:34:13;1.10;99.90
29687;DHT22;16599;47.078;15.536;2022-11-11T06:36:40;1.20;99.90
29687;DHT22;16599;47.078;15.536;2022-11-11T06:39:07;1.40;99.90
29687;DHT22;16599;47.078;15.536;2022-11-11T06:41:33;1.50;99.90
29687;DHT22;16599;47.078;15.536;2022-11-11T06:44:00;1.30;99.90
29687;DHT22;16599;47.078;15.536;2022-11-11T06:46:27;1.30;99.90
29687;DHT22;16599;47.078;15.536;2022-11-11T06:48:53;1.50;99.90
29687;DHT22;16599;47.078;15.536;2022-11-11T06:51:20;1.60;99.90
29687;DHT22;16599;47.078;15.536;2022-11-11T06:53:47;1.60;99.90
29687;DHT22;16599;47.078;15.536;2022-11-11T06:56:15;1.50;99.90
29687;DHT22;16599;47.078;15.536;2022-11-11T06:58:41;1.70;99.90
29687;DHT22;16599;47.078;15.536;2022-11-11T07:01:09;1.80;99.90
29687;DHT22;16599;47.078;15.536;2022-11-11T07:03:36;1.70;99.90
29687;DHT22;16599;47.078;15.536;2022-11-11T07:06:04;1.80;99.90
29687;DHT22;16599;47.078;15.536;2022-11-11T07:08:31;1.90;99.90
29687;DHT22;16599;47.078;15.536;2022-11-11T07:10:58;1.80;99.90
29687;DHT22;16599;47.078;15.536;2022-11-11T07:13:34;1.80;99.90
29687;DHT22;16599;47.078;15.536;2022-11-11T07:16:01;1.90;99.90
29687;DHT22;16599;47.078;15.536;2022-11-11T07:18:28;1.90;99.90
29687;DHT22;16599;47.078;15.536;2022-11-11T07:20:55;2.00;99.90
29687;DHT22;16599;47.078;15.536;2022-11-11T07:23:21;2.00;99.90
29687;DHT22;16599;47.078;15.536;2022-11-11T07:25:48;2.00;99.90
29687;DHT22;16599;47.078;15.536;2022-11-11T07:28:15;2.00;99.90
29687;DHT22;16599;47.078;15.536;2022-11-11T07:30:41;2.00;99.90
29687;DHT22;16599;47.078;15.536;2022-11-11T07:33:08;2.10;99.90
29687;DHT22;16599;47.078;15.536;2022-11-11T07:35:35;2.10;99.90
29687;DHT22;16599;47.078;15.536;2022-11-11T07:38:02;2.10;99.90
29687;DHT22;16599;47.078;15.536;2022-11-11T07:40:29;2.10;99.90
29687;DHT22;16599;47.078;15.536;2022-11-11T07:42:56;2.20;99.90
29687;DHT22;16599;47.078;15.536;2022-11-11T07:45:22;2.40;99.90
29687;DHT22;16599;47.078;15.536;2022-11-11T07:47:49;2.50;99.90
29687;DHT22;16599;47.078;15.536;2022-11-11T07:50:16;2.50;99.90
29687;DHT22;16599;47.078;15.536;2022-11-11T07:52:47;2.50;99.90
29687;DHT22;16599;47.078;15.536;2022-11-11T07:55:14;2.70;99.90
29687;DHT22;16599;47.078;15.536;2022-11-11T07:57:41;2.70;99.90
29687;DHT22;16599;47.078;15.536;2022-11-11T08:00:08;2.60;99.90
29687;DHT22;16599;47.078;15.536;2022-11-11T08:02:35;2.80;99.90
29687;DHT22;16599;47.078;15.536;2022-11-11T08:05:02;2.90;99.90
29687;DHT22;16599;47.078;15.536;2022-11-11T08:07:29;3.00;99.90
29687;DHT22;16599;47.078;15.536;2022-11-11T08:09:56;3.20;99.90
29687;DHT22;16599;47.078;15.536;2022-11-11T08:12:23;3.30;99.90
29687;DHT22;16599;47.078;15.536;2022-11-11T08:15:08;3.40;99.90
29687;DHT22;16599;47.078;15.536;2022-11-11T08:17:38;3.50;99.90
29687;DHT22;16599;47.078;15.536;2022-11-11T08:20:07;3.60;99.90
29687;DHT22;16599;47.078;15.536;2022-11-11T08:22:36;3.80;99.90
29687;DHT22;16599;47.078;15.536;2022-11-11T08:25:08;3.80;99.90
29687;DHT22;16599;47.078;15.536;2022-11-11T08:27:36;4.00;99.90
29687;DHT22;16599;47.078;15.536;2022-11-11T08:30:04;4.10;99.90
29687;DHT22;16599;47.078;15.536;2022-11-11T08:32:31;4.40;99.90
29687;DHT22;16599;47.078;15.536;2022-11-11T08:34:58;4.80;99.90
29687;DHT22;16599;47.078;15.536;2022-11-11T08:37:26;5.00;99.90
29687;DHT22;16599;47.078;15.536;2022-11-11T08:39:53;5.00;99.90
29687;DHT22;16599;47.078;15.536;2022-11-11T08:42:20;5.10;99.90
29687;DHT22;16599;47.078;15.536;2022-11-11T08:44:46;5.10;99.90
29687;DHT22;16599;47.078;15.536;2022-11-11T08:47:13;5.30;99.90
29687;DHT22;16599;47.078;15.536;2022-11-11T08:49:40;5.50;99.90
29687;DHT22;16599;47.078;15.536;2022-11-11T08:52:07;5.50;99.90
29687;DHT22;16599;47.078;15.536;2022-11-11T08:54:33;5.60;99.90
29687;DHT22;16599;47.078;15.536;2022-11-11T08:57:00;5.60;99.90
29687;DHT22;16599;47.078;15.536;2022-11-11T08:59:27;5.70;99.90
29687;DHT22;16599;47.078;15.536;2022-11-11T09:01:54;5.90;99.90
29687;DHT22;16599;47.078;15.536;2022-11-11T09:04:21;6.00;99.90
29687;DHT22;16599;47.078;15.536;2022-11-11T09:07:09;6.10;99.90
29687;DHT22;16599;47.078;15.536;2022-11-11T09:09:36;6.10;99.90
29687;DHT22;16599;47.078;15.536;2022-11-11T09:12:03;6.20;99.90
29687;DHT22;16599;47.078;15.536;2022-11-11T09:14:30;6.50;99.90
29687;DHT22;16599;47.078;15.536;2022-11-11T09:16:57;6.70;99.90
29687;DHT22;16599;47.078;15.536;2022-11-11T09:19:23;6.70;99.90
29687;DHT22;16599;47.078;15.536;2022-11-11T09:21:50;6.80;99.90
29687;DHT22;16599;47.078;15.536;2022-11-11T09:24:18;6.80;99.90
29687;DHT22;16599;47.078;15.536;2022-11-11T09:26:48;7.00;99.90
29687;DHT22;16599;47.078;15.536;2022-11-11T09:29:16;7.00;99.90
29687;DHT22;16599;47.078;15.536;2022-11-11T09:31:44;7.10;99.90
29687;DHT22;16599;47.078;15.536;2022-11-11T09:34:12;7.30;99.90
29687;DHT22;16599;47.078;15.536;2022-11-11T09:36:40;7.30;99.90
29687;DHT22;16599;47.078;15.536;2022-11-11T09:39:08;7.30;99.90
29687;DHT22;16599;47.078;15.536;2022-11-11T09:42:06;7.30;99.90
29687;DHT22;16599;47.078;15.536;2022-11-11T09:47:52;7.60;99.90
29687;DHT22;16599;47.078;15.536;2022-11-11T09:50:31;7.70;99.90
29687;DHT22;16599;47.078;15.536;2022-11-11T09:53:27;7.80;99.90
29687;DHT22;16599;47.078;15.536;2022-11-11T09:56:08;7.90;99.90
29687;DHT22;16599;47.078;15.536;2022-11-11T10:01:28;8.10;99.90
29687;DHT22;16599;47.078;15.536;2022-11-11T10:04:33;8.10;99.90
29687;DHT22;16599;47.078;15.536;2022-11-11T10:07:13;8.10;99.90
29687;DHT22;16599;47.078;15.536;2022-11-11T10:09:50;8.20;99.90
29687;DHT22;16599;47.078;15.536;2022-11-11T10:12:20;8.30;99.90
29687;DHT22;16599;47.078;15.536;2022-11-11T10:14:49;8.50;99.90
29687;DHT22;16599;47.078;15.536;2022-11-11T10:17:29;8.60;99.90
29687;DHT22;16599;47.078;15.536;2022-11-11T10:22:37;8.60;99.90
29687;DHT22;16599;47.078;15.536;2022-11-11T10:27:40;8.70;99.90
29687;DHT22;16599;47.078;15.536;2022-11-11T10:32:46;8.80;99.90
29687;DHT22;16599;47.078;15.536;2022-11-11T10:35:19;8.90;99.90
29687;DHT22;16599;47.078;15.536;2022-11-11T10:38:34;8.90;99.90
29687;DHT22;16599;47.078;15.536;2022-11-11T10:40:52;9.00;99.90
29687;DHT22;16599;47.078;15.536;2022-11-11T10:43:25;9.00;99.90
29687;DHT22;16599;47.078;15.536;2022-11-11T10:46:03;9.10;99.90
29687;DHT22;16599;47.078;15.536;2022-11-11T10:51:12;9.10;99.90
29687;DHT22;16599;47.078;15.536;2022-11-11T10:56:27;9.00;99.90
29687;DHT22;16599;47.078;15.536;2022-11-11T10:59:06;9.10;99.90
29687;DHT22;16599;47.078;15.536;2022-11-11T11:04:17;9.30;99.90
29687;DHT22;16599;47.078;15.536;2022-11-11T11:06:47;9.20;99.90
29687;DHT22;16599;47.078;15.536;2022-11-11T11:09:31;9.20;99.90
29687;DHT22;16599;47.078;15.536;2022-11-11T11:14:34;9.30;99.90
29687;DHT22;16599;47.078;15.536;2022-11-11T11:17:34;9.30;99.90
29687;DHT22;16599;47.078;15.536;2022-11-11T11:20:12;9.40;99.90
29687;DHT22;16599;47.078;15.536;2022-11-11T11:25:14;9.50;99.90
29687;DHT22;16599;47.078;15.536;2022-11-11T11:27:41;9.50;99.90
29687;DHT22;16599;47.078;15.536;2022-11-11T11:30:21;9.50;99.90
29687;DHT22;16599;47.078;15.536;2022-11-11T11:33:00;9.50;99.90
29687;DHT22;16599;47.078;15.536;2022-11-11T11:35:37;9.50;99.90
29687;DHT22;16599;47.078;15.536;2022-11-11T11:38:06;9.40;99.90
29687;DHT22;16599;47.078;15.536;2022-11-11T11:45:59;9.50;99.90
29687;DHT22;16599;47.078;15.536;2022-11-11T11:48:39;9.50;99.90
29687;DHT22;16599;47.078;15.536;2022-11-11T12:07:29;9.80;99.90
29687;DHT22;16599;47.078;15.536;2022-11-11T12:21:33;10.10;99.90
29687;DHT22;16599;47.078;15.536;2022-11-11T12:32:38;10.20;99.90
29687;DHT22;16599;47.078;15.536;2022-11-11T12:35:16;10.40;99.90
29687;DHT22;16599;47.078;15.536;2022-11-11T12:46:09;11.00;99.90
29687;DHT22;16599;47.078;15.536;2022-11-11T12:51:48;11.00;99.90
29687;DHT22;16599;47.078;15.536;2022-11-11T12:54:45;10.80;99.90
29687;DHT22;16599;47.078;15.536;2022-11-11T12:57:32;10.60;99.90
29687;DHT22;16599;47.078;15.536;2022-11-11T13:00:08;10.50;99.90
29687;DHT22;16599;47.078;15.536;2022-11-11T13:05:33;10.70;99.90
29687;DHT22;16599;47.078;15.536;2022-11-11T13:08:10;10.70;99.90
29687;DHT22;16599;47.078;15.536;2022-11-11T13:16:07;11.00;99.90
29687;DHT22;16599;47.078;15.536;2022-11-11T13:18:59;11.20;99.90
29687;DHT22;16599;47.078;15.536;2022-11-11T13:21:58;11.30;99.90
29687;DHT22;16599;47.078;15.536;2022-11-11T13:24:26;11.20;99.90
29687;DHT22;16599;47.078;15.536;2022-11-11T13:27:05;11.00;99.90
29687;DHT22;16599;47.078;15.536;2022-11-11T13:32:12;10.90;99.90
29687;DHT22;16599;47.078;15.536;2022-11-11T13:34:41;10.80;99.90
29687;DHT22;16599;47.078;15.536;2022-11-11T13:37:16;10.80;99.90
29687;DHT22;16599;47.078;15.536;2022-11-11T13:39:48;10.70;99.90
29687;DHT22;16599;47.078;15.536;2022-11-11T13:42:26;10.60;99.90
29687;DHT22;16599;47.078;15.536;2022-11-11T13:44:57;10.50;99.90
29687;DHT22;16599;47.078;15.536;2022-11-11T13:47:32;10.50;99.90
29687;DHT22;16599;47.078;15.536;2022-11-11T13:52:35;10.50;99.90
29687;DHT22;16599;47.078;15.536;2022-11-11T13:55:07;10.40;99.90
29687;DHT22;16599;47.078;15.536;2022-11-11T13:57:48;10.40;99.90
29687;DHT22;16599;47.078;15.536;2022-11-11T14:02:43;10.50;99.90
29687;DHT22;16599;47.078;15.536;2022-11-11T14:15:52;10.10;99.90
29687;DHT22;16599;47.078;15.536;2022-11-11T14:20:50;10.00;99.90
29687;DHT22;16599;47.078;15.536;2022-11-11T14:23:34;10.00;99.90
29687;DHT22;16599;47.078;15.536;2022-11-11T14:41:56;9.60;99.90
29687;DHT22;16599;47.078;15.536;2022-11-11T14:49:51;9.30;99.90
29687;DHT22;16599;47.078;15.536;2022-11-11T14:55:20;9.20;99.90
29687;DHT22;16599;47.078;15.536;2022-11-11T15:06:23;8.80;99.90
29687;DHT22;16599;47.078;15.536;2022-11-11T15:11:57;8.50;99.90
29687;DHT22;16599;47.078;15.536;2022-11-11T15:17:23;8.10;99.90
29687;DHT22;16599;47.078;15.536;2022-11-11T15:28:38;7.50;99.90
29687;DHT22;16599;47.078;15.536;2022-11-11T15:39:20;6.80;99.90
29687;DHT22;16599;47.078;15.536;2022-11-11T15:41:49;6.50;99.90
29687;DHT22;16599;47.078;15.536;2022-11-11T15:44:28;6.30;99.90
29687;DHT22;16599;47.078;15.536;2022-11-11T15:46:57;6.30;99.90
29687;DHT22;16599;47.078;15.536;2022-11-11T15:49:42;6.50;99.90
29687;DHT22;16599;47.078;15.536;2022-11-11T15:54:49;6.60;99.90
29687;DHT22;16599;47.078;15.536;2022-11-11T15:57:27;6.30;99.90
29687;DHT22;16599;47.078;15.536;2022-11-11T15:59:55;6.30;99.90
29687;DHT22;16599;47.078;15.536;2022-11-11T16:02:30;6.50;99.90
29687;DHT22;16599;47.078;15.536;2022-11-11T16:05:05;6.30;99.90
29687;DHT22;16599;47.078;15.536;2022-11-11T16:07:37;6.00;99.90
29687;DHT22;16599;47.078;15.536;2022-11-11T16:10:12;5.70;99.90
29687;DHT22;16599;47.078;15.536;2022-11-11T16:15:36;5.60;99.90
29687;DHT22;16599;47.078;15.536;2022-11-11T16:18:11;5.70;99.90
29687;DHT22;16599;47.078;15.536;2022-11-11T16:23:16;5.60;99.90
29687;DHT22;16599;47.078;15.536;2022-11-11T16:25:45;5.40;99.90
29687;DHT22;16599;47.078;15.536;2022-11-11T16:28:19;5.10;99.90
29687;DHT22;16599;47.078;15.536;2022-11-11T16:30:46;5.20;99.90
29687;DHT22;16599;47.078;15.536;2022-11-11T16:33:32;5.10;99.90
29687;DHT22;16599;47.078;15.536;2022-11-11T16:36:09;5.20;99.90
29687;DHT22;16599;47.078;15.536;2022-11-11T16:38:37;5.00;99.90
29687;DHT22;16599;47.078;15.536;2022-11-11T16:41:29;4.90;99.90
29687;DHT22;16599;47.078;15.536;2022-11-11T16:43:59;5.20;99.90
29687;DHT22;16599;47.078;15.536;2022-11-11T16:49:15;4.70;99.90
29687;DHT22;16599;47.078;15.536;2022-11-11T16:51:48;4.70;99.90
29687;DHT22;16599;47.078;15.536;2022-11-11T16:54:23;4.70;99.90
29687;DHT22;16599;47.078;15.536;2022-11-11T16:56:54;4.90;99.90
29687;DHT22;16599;47.078;15.536;2022-11-11T16:59:44;5.00;99.90
29687;DHT22;16599;47.078;15.536;2022-11-11T17:02:17;5.00;99.90
29687;DHT22;16599;47.078;15.536;2022-11-11T17:07:37;5.20;99.90
29687;DHT22;16599;47.078;15.536;2022-11-11T17:12:35;4.50;99.90
29687;DHT22;16599;47.078;15.536;2022-11-11T17:15:07;4.60;99.90
29687;DHT22;16599;47.078;15.536;2022-11-11T17:17:35;4.10;99.90
29687;DHT22;16599;47.078;15.536;2022-11-11T17:20:07;4.10;99.90
29687;DHT22;16599;47.078;15.536;2022-11-11T17:22:36;4.10;99.90
29687;DHT22;16599;47.078;15.536;2022-11-11T17:25:03;4.00;99.90
29687;DHT22;16599;47.078;15.536;2022-11-11T17:27:30;4.20;99.90
29687;DHT22;16599;47.078;15.536;2022-11-11T17:29:57;4.40;99.90
29687;DHT22;16599;47.078;15.536;2022-11-11T17:32:24;4.20;99.90
29687;DHT22;16599;47.078;15.536;2022-11-11T17:34:51;4.20;99.90
29687;DHT22;16599;47.078;15.536;2022-11-11T17:37:18;4.30;99.90
29687;DHT22;16599;47.078;15.536;2022-11-11T17:39:44;4.20;99.90
29687;DHT22;16599;47.078;15.536;2022-11-11T17:42:11;4.20;99.90
29687;DHT22;16599;47.078;15.536;2022-11-11T17:44:39;4.00;99.90
29687;DHT22;16599;47.078;15.536;2022-11-11T17:47:06;3.70;99.90
29687;DHT22;16599;47.078;15.536;2022-11-11T17:49:33;3.40;99.90
29687;DHT22;16599;47.078;15.536;2022-11-11T17:52:19;3.60;99.90
29687;DHT22;16599;47.078;15.536;2022-11-11T17:54:46;3.80;99.90
29687;DHT22;16599;47.078;15.536;2022-11-11T17:57:13;3.80;99.90
29687;DHT22;16599;47.078;15.536;2022-11-11T17:59:40;3.80;99.90
29687;DHT22;16599;47.078;15.536;2022-11-11T18:02:08;4.00;99.90
29687;DHT22;16599;47.078;15.536;2022-11-11T18:04:35;4.10;99.90
29687;DHT22;16599;47.078;15.536;2022-11-11T18:07:02;3.90;99.90
29687;DHT22;16599;47.078;15.536;2022-11-11T18:09:29;3.50;99.90
29687;DHT22;16599;47.078;15.536;2022-11-11T18:11:57;3.50;99.90
29687;DHT22;16599;47.078;15.536;2022-11-11T18:14:23;3.50;99.90
29687;DHT22;16599;47.078;15.536;2022-11-11T18:16:50;3.60;99.90
29687;DHT22;16599;47.078;15.536;2022-11-11T18:19:17;3.40;99.90
29687;DHT22;16599;47.078;15.536;2022-11-11T18:21:44;3.30;99.90
29687;DHT22;16599;47.078;15.536;2022-11-11T18:24:10;3.50;99.90
29687;DHT22;16599;47.078;15.536;2022-11-11T18:26:38;3.30;99.90
29687;DHT22;16599;47.078;15.536;2022-11-11T18:29:08;3.40;99.90
29687;DHT22;16599;47.078;15.536;2022-11-11T18:31:36;3.40;99.90
29687;DHT22;16599;47.078;15.536;2022-11-11T18:34:03;3.40;99.90
29687;DHT22;16599;47.078;15.536;2022-11-11T18:36:30;3.20;99.90
29687;DHT22;16599;47.078;15.536;2022-11-11T18:38:56;3.30;99.90
29687;DHT22;16599;47.078;15.536;2022-11-11T18:41:24;3.40;99.90
29687;DHT22;16599;47.078;15.536;2022-11-11T18:43:51;3.40;99.90
29687;DHT22;16599;47.078;15.536;2022-11-11T18:46:27;3.40;99.90
29687;DHT22;16599;47.078;15.536;2022-11-11T18:48:59;3.30;99.90
29687;DHT22;16599;47.078;15.536;2022-11-11T18:51:28;3.20;99.90
29687;DHT22;16599;47.078;15.536;2022-11-11T18:53:57;3.10;99.90
29687;DHT22;16599;47.078;15.536;2022-11-11T18:56:25;3.20;99.90
29687;DHT22;16599;47.078;15.536;2022-11-11T18:58:58;3.50;99.90
29687;DHT22;16599;47.078;15.536;2022-11-11T19:01:27;3.60;99.90
29687;DHT22;16599;47.078;15.536;2022-11-11T19:03:57;3.60;99.90
29687;DHT22;16599;47.078;15.536;2022-11-11T19:06:26;3.40;99.90
29687;DHT22;16599;47.078;15.536;2022-11-11T19:08:58;3.10;99.90
29687;DHT22;16599;47.078;15.536;2022-11-11T19:11:26;3.20;99.90